sensor_id;sensor_type;location;lat;lon;timestamp;P1;durP1;ratioP1;P2;durP2;ratioP2
17052;SDS011;8643;48.824;11.422;2022-11-15T00:01:38;26.90;;;14.00;;
17052;SDS011;8643;48.824;11.422;2022-11-15T00:04:26;26.80;;;14.47;;
17052;SDS011;8643;48.824;11.422;2022-11-15T00:07:13;28.10;;;14.97;;
17052;SDS011;8643;48.824;11.422;2022-11-15T00:10:20;24.43;;;13.83;;
17052;SDS011;8643;48.824;11.422;2022-11-15T00:13:07;26.47;;;13.83;;
17052;SDS011;8643;48.824;11.422;2022-11-15T00:15:57;24.97;;;13.90;;
17052;SDS011;8643;48.824;11.422;2022-11-15T00:18:46;26.17;;;14.00;;
17052;SDS011;8643;48.824;11.422;2022-11-15T00:21:35;23.93;;;13.17;;
17052;SDS011;8643;48.824;11.422;2022-11-15T00:24:22;27.00;;;13.03;;
17052;SDS011;8643;48.824;11.422;2022-11-15T00:27:10;22.70;;;12.90;;
17052;SDS011;8643;48.824;11.422;2022-11-15T00:29:57;20.43;;;12.63;;
17052;SDS011;8643;48.824;11.422;2022-11-15T00:32:45;22.07;;;11.87;;
17052;SDS011;8643;48.824;11.422;2022-11-15T00:35:35;22.40;;;12.60;;
17052;SDS011;8643;48.824;11.422;2022-11-15T00:38:22;21.10;;;11.90;;
17052;SDS011;8643;48.824;11.422;2022-11-15T00:41:09;21.27;;;12.43;;
17052;SDS011;8643;48.824;11.422;2022-11-15T00:43:56;23.40;;;12.63;;
17052;SDS011;8643;48.824;11.422;2022-11-15T00:46:44;19.97;;;11.47;;
17052;SDS011;8643;48.824;11.422;2022-11-15T00:49:31;20.77;;;11.67;;
17052;SDS011;8643;48.824;11.422;2022-11-15T00:52:20;20.97;;;12.20;;
17052;SDS011;8643;48.824;11.422;2022-11-15T00:55:08;21.30;;;11.50;;
17052;SDS011;8643;48.824;11.422;2022-11-15T00:58:01;22.47;;;11.63;;
17052;SDS011;8643;48.824;11.422;2022-11-15T01:00:48;21.90;;;11.97;;
17052;SDS011;8643;48.824;11.422;2022-11-15T01:03:38;23.37;;;11.90;;
17052;SDS011;8643;48.824;11.422;2022-11-15T01:06:36;22.87;;;12.27;;
17052;SDS011;8643;48.824;11.422;2022-11-15T01:09:32;21.33;;;12.13;;
17052;SDS011;8643;48.824;11.422;2022-11-15T01:12:19;21.20;;;11.60;;
17052;SDS011;8643;48.824;11.422;2022-11-15T01:15:07;22.50;;;12.03;;
17052;SDS011;8643;48.824;11.422;2022-11-15T01:17:56;19.17;;;10.93;;
17052;SDS011;8643;48.824;11.422;2022-11-15T01:20:53;21.63;;;12.43;;
17052;SDS011;8643;48.824;11.422;2022-11-15T01:23:40;22.30;;;11.67;;
17052;SDS011;8643;48.824;11.422;2022-11-15T01:26:29;21.67;;;11.63;;
17052;SDS011;8643;48.824;11.422;2022-11-15T01:29:16;24.60;;;11.70;;
17052;SDS011;8643;48.824;11.422;2022-11-15T01:32:03;19.57;;;11.47;;
17052;SDS011;8643;48.824;11.422;2022-11-15T01:34:51;20.73;;;11.90;;
17052;SDS011;8643;48.824;11.422;2022-11-15T01:37:37;26.33;;;11.43;;
17052;SDS011;8643;48.824;11.422;2022-11-15T01:40:24;21.53;;;12.10;;
17052;SDS011;8643;48.824;11.422;2022-11-15T01:43:23;19.97;;;11.10;;
17052;SDS011;8643;48.824;11.422;2022-11-15T01:46:19;21.10;;;11.60;;
17052;SDS011;8643;48.824;11.422;2022-11-15T01:49:20;22.60;;;12.03;;
17052;SDS011;8643;48.824;11.422;2022-11-15T01:52:10;20.60;;;11.27;;
17052;SDS011;8643;48.824;11.422;2022-11-15T01:55:02;19.67;;;11.00;;
17052;SDS011;8643;48.824;11.422;2022-11-15T01:57:56;19.97;;;11.17;;
17052;SDS011;8643;48.824;11.422;2022-11-15T02:00:48;20.87;;;11.53;;
17052;SDS011;8643;48.824;11.422;2022-11-15T02:03:38;17.93;;;10.23;;
17052;SDS011;8643;48.824;11.422;2022-11-15T02:06:32;19.40;;;10.50;;
17052;SDS011;8643;48.824;11.422;2022-11-15T02:09:22;17.97;;;9.50;;
17052;SDS011;8643;48.824;11.422;2022-11-15T02:12:09;18.67;;;9.97;;
17052;SDS011;8643;48.824;11.422;2022-11-15T02:15:00;18.63;;;10.10;;
17052;SDS011;8643;48.824;11.422;2022-11-15T02:17:58;17.53;;;9.60;;
17052;SDS011;8643;48.824;11.422;2022-11-15T02:21:05;17.23;;;9.53;;
17052;SDS011;8643;48.824;11.422;2022-11-15T02:27:27;17.53;;;9.77;;
17052;SDS011;8643;48.824;11.422;2022-11-15T02:30:39;16.67;;;9.60;;
17052;SDS011;8643;48.824;11.422;2022-11-15T02:33:34;15.60;;;8.90;;
17052;SDS011;8643;48.824;11.422;2022-11-15T02:36:30;16.47;;;9.77;;
17052;SDS011;8643;48.824;11.422;2022-11-15T02:39:28;18.23;;;10.17;;
17052;SDS011;8643;48.824;11.422;2022-11-15T02:42:25;17.60;;;9.30;;
17052;SDS011;8643;48.824;11.422;2022-11-15T02:45:35;15.83;;;9.07;;
17052;SDS011;8643;48.824;11.422;2022-11-15T02:48:29;12.87;;;8.13;;
17052;SDS011;8643;48.824;11.422;2022-11-15T02:51:18;15.37;;;8.70;;
17052;SDS011;8643;48.824;11.422;2022-11-15T02:54:06;14.83;;;8.60;;
17052;SDS011;8643;48.824;11.422;2022-11-15T02:56:58;15.30;;;8.53;;
17052;SDS011;8643;48.824;11.422;2022-11-15T03:00:01;16.83;;;7.93;;
17052;SDS011;8643;48.824;11.422;2022-11-15T03:03:15;17.00;;;8.53;;
17052;SDS011;8643;48.824;11.422;2022-11-15T03:06:37;13.80;;;7.83;;
17052;SDS011;8643;48.824;11.422;2022-11-15T03:09:34;16.37;;;8.53;;
17052;SDS011;8643;48.824;11.422;2022-11-15T03:12:34;14.70;;;8.03;;
17052;SDS011;8643;48.824;11.422;2022-11-15T03:15:28;13.00;;;7.90;;
17052;SDS011;8643;48.824;11.422;2022-11-15T03:18:21;14.60;;;7.90;;
17052;SDS011;8643;48.824;11.422;2022-11-15T03:21:14;14.37;;;7.67;;
17052;SDS011;8643;48.824;11.422;2022-11-15T03:24:19;13.27;;;7.90;;
17052;SDS011;8643;48.824;11.422;2022-11-15T03:27:10;13.30;;;7.47;;
17052;SDS011;8643;48.824;11.422;2022-11-15T03:30:04;13.33;;;7.00;;
17052;SDS011;8643;48.824;11.422;2022-11-15T03:32:56;13.60;;;7.53;;
17052;SDS011;8643;48.824;11.422;2022-11-15T03:35:46;14.33;;;7.50;;
17052;SDS011;8643;48.824;11.422;2022-11-15T03:38:35;14.37;;;7.63;;
17052;SDS011;8643;48.824;11.422;2022-11-15T03:41:25;12.67;;;6.70;;
17052;SDS011;8643;48.824;11.422;2022-11-15T03:44:23;10.60;;;6.33;;
17052;SDS011;8643;48.824;11.422;2022-11-15T03:47:23;14.77;;;7.80;;
17052;SDS011;8643;48.824;11.422;2022-11-15T03:50:18;12.23;;;6.80;;
17052;SDS011;8643;48.824;11.422;2022-11-15T03:53:09;11.13;;;5.97;;
17052;SDS011;8643;48.824;11.422;2022-11-15T03:55:58;11.23;;;6.20;;
17052;SDS011;8643;48.824;11.422;2022-11-15T03:58:46;10.00;;;6.17;;
17052;SDS011;8643;48.824;11.422;2022-11-15T04:01:34;11.47;;;6.40;;
17052;SDS011;8643;48.824;11.422;2022-11-15T04:04:22;12.17;;;6.40;;
17052;SDS011;8643;48.824;11.422;2022-11-15T04:07:09;12.17;;;7.10;;
17052;SDS011;8643;48.824;11.422;2022-11-15T04:09:58;12.97;;;7.23;;
17052;SDS011;8643;48.824;11.422;2022-11-15T04:12:48;12.20;;;7.40;;
17052;SDS011;8643;48.824;11.422;2022-11-15T04:15:35;14.37;;;7.40;;
17052;SDS011;8643;48.824;11.422;2022-11-15T04:18:23;18.30;;;9.10;;
17052;SDS011;8643;48.824;11.422;2022-11-15T04:21:11;17.63;;;9.50;;
17052;SDS011;8643;48.824;11.422;2022-11-15T04:24:15;18.57;;;9.17;;
17052;SDS011;8643;48.824;11.422;2022-11-15T04:27:04;19.90;;;9.93;;
17052;SDS011;8643;48.824;11.422;2022-11-15T04:29:51;19.60;;;10.57;;
17052;SDS011;8643;48.824;11.422;2022-11-15T04:32:38;18.93;;;10.17;;
17052;SDS011;8643;48.824;11.422;2022-11-15T04:35:25;17.20;;;10.00;;
17052;SDS011;8643;48.824;11.422;2022-11-15T04:38:12;20.07;;;9.73;;
17052;SDS011;8643;48.824;11.422;2022-11-15T04:40:59;17.87;;;9.43;;
17052;SDS011;8643;48.824;11.422;2022-11-15T04:43:48;21.67;;;9.63;;
17052;SDS011;8643;48.824;11.422;2022-11-15T04:46:35;17.07;;;9.23;;
17052;SDS011;8643;48.824;11.422;2022-11-15T04:49:22;20.30;;;10.43;;
17052;SDS011;8643;48.824;11.422;2022-11-15T04:52:09;18.30;;;9.90;;
17052;SDS011;8643;48.824;11.422;2022-11-15T04:54:56;19.53;;;10.23;;
17052;SDS011;8643;48.824;11.422;2022-11-15T04:57:56;20.27;;;9.97;;
17052;SDS011;8643;48.824;11.422;2022-11-15T05:00:46;17.83;;;9.30;;
17052;SDS011;8643;48.824;11.422;2022-11-15T05:03:34;17.50;;;8.83;;
17052;SDS011;8643;48.824;11.422;2022-11-15T05:06:38;14.87;;;8.07;;
17052;SDS011;8643;48.824;11.422;2022-11-15T05:09:26;17.97;;;9.10;;
17052;SDS011;8643;48.824;11.422;2022-11-15T05:12:13;14.37;;;8.20;;
17052;SDS011;8643;48.824;11.422;2022-11-15T05:14:59;13.90;;;8.23;;
17052;SDS011;8643;48.824;11.422;2022-11-15T05:17:48;15.77;;;8.40;;
17052;SDS011;8643;48.824;11.422;2022-11-15T05:20:34;16.67;;;7.57;;
17052;SDS011;8643;48.824;11.422;2022-11-15T05:23:23;15.20;;;8.33;;
17052;SDS011;8643;48.824;11.422;2022-11-15T05:26:10;15.87;;;8.37;;
17052;SDS011;8643;48.824;11.422;2022-11-15T05:28:58;14.07;;;8.07;;
17052;SDS011;8643;48.824;11.422;2022-11-15T05:31:45;14.70;;;7.80;;
17052;SDS011;8643;48.824;11.422;2022-11-15T05:34:34;13.57;;;7.93;;
17052;SDS011;8643;48.824;11.422;2022-11-15T05:37:21;13.07;;;7.73;;
17052;SDS011;8643;48.824;11.422;2022-11-15T05:40:08;15.00;;;7.60;;
17052;SDS011;8643;48.824;11.422;2022-11-15T05:42:55;17.57;;;7.73;;
17052;SDS011;8643;48.824;11.422;2022-11-15T05:45:43;15.77;;;7.83;;
17052;SDS011;8643;48.824;11.422;2022-11-15T05:48:31;14.53;;;8.17;;
17052;SDS011;8643;48.824;11.422;2022-11-15T05:51:21;16.40;;;8.93;;
17052;SDS011;8643;48.824;11.422;2022-11-15T05:54:09;19.00;;;7.27;;
17052;SDS011;8643;48.824;11.422;2022-11-15T05:56:57;12.13;;;7.33;;
17052;SDS011;8643;48.824;11.422;2022-11-15T05:59:44;15.67;;;7.20;;
17052;SDS011;8643;48.824;11.422;2022-11-15T06:02:31;16.87;;;8.20;;
17052;SDS011;8643;48.824;11.422;2022-11-15T06:05:19;14.07;;;7.10;;
17052;SDS011;8643;48.824;11.422;2022-11-15T06:08:07;12.30;;;7.03;;
17052;SDS011;8643;48.824;11.422;2022-11-15T06:10:54;14.30;;;7.43;;
17052;SDS011;8643;48.824;11.422;2022-11-15T06:13:41;15.30;;;8.07;;
17052;SDS011;8643;48.824;11.422;2022-11-15T06:16:28;19.53;;;10.80;;
17052;SDS011;8643;48.824;11.422;2022-11-15T06:19:16;20.00;;;10.50;;
17052;SDS011;8643;48.824;11.422;2022-11-15T06:22:03;16.10;;;9.57;;
17052;SDS011;8643;48.824;11.422;2022-11-15T06:24:51;17.30;;;9.23;;
17052;SDS011;8643;48.824;11.422;2022-11-15T06:27:38;16.40;;;8.73;;
17052;SDS011;8643;48.824;11.422;2022-11-15T06:30:26;16.90;;;8.87;;
17052;SDS011;8643;48.824;11.422;2022-11-15T06:33:13;15.27;;;8.53;;
17052;SDS011;8643;48.824;11.422;2022-11-15T06:36:00;16.43;;;8.13;;
17052;SDS011;8643;48.824;11.422;2022-11-15T06:38:48;16.80;;;9.10;;
17052;SDS011;8643;48.824;11.422;2022-11-15T06:41:37;17.67;;;10.30;;
17052;SDS011;8643;48.824;11.422;2022-11-15T06:44:23;20.93;;;11.67;;
17052;SDS011;8643;48.824;11.422;2022-11-15T06:47:10;34.27;;;19.17;;
17052;SDS011;8643;48.824;11.422;2022-11-15T06:49:57;29.43;;;15.67;;
17052;SDS011;8643;48.824;11.422;2022-11-15T06:52:44;30.47;;;14.77;;
17052;SDS011;8643;48.824;11.422;2022-11-15T06:55:32;32.43;;;16.33;;
17052;SDS011;8643;48.824;11.422;2022-11-15T06:58:21;31.70;;;16.90;;
17052;SDS011;8643;48.824;11.422;2022-11-15T07:01:09;28.73;;;15.17;;
17052;SDS011;8643;48.824;11.422;2022-11-15T07:03:58;27.47;;;15.80;;
17052;SDS011;8643;48.824;11.422;2022-11-15T07:06:45;27.80;;;14.30;;
17052;SDS011;8643;48.824;11.422;2022-11-15T07:09:33;20.07;;;11.60;;
17052;SDS011;8643;48.824;11.422;2022-11-15T07:12:20;19.83;;;10.43;;
17052;SDS011;8643;48.824;11.422;2022-11-15T07:15:09;18.67;;;9.97;;
17052;SDS011;8643;48.824;11.422;2022-11-15T07:17:56;16.33;;;9.90;;
17052;SDS011;8643;48.824;11.422;2022-11-15T07:20:47;20.80;;;9.90;;
17052;SDS011;8643;48.824;11.422;2022-11-15T07:23:35;17.30;;;9.33;;
17052;SDS011;8643;48.824;11.422;2022-11-15T07:26:23;18.33;;;9.67;;
17052;SDS011;8643;48.824;11.422;2022-11-15T07:29:10;20.63;;;10.13;;
17052;SDS011;8643;48.824;11.422;2022-11-15T07:31:58;18.97;;;10.80;;
17052;SDS011;8643;48.824;11.422;2022-11-15T07:34:45;25.87;;;10.73;;
17052;SDS011;8643;48.824;11.422;2022-11-15T07:37:32;27.87;;;13.37;;
17052;SDS011;8643;48.824;11.422;2022-11-15T07:40:19;33.97;;;16.97;;
17052;SDS011;8643;48.824;11.422;2022-11-15T07:43:07;37.63;;;18.10;;
17052;SDS011;8643;48.824;11.422;2022-11-15T07:45:55;60.07;;;28.03;;
17052;SDS011;8643;48.824;11.422;2022-11-15T07:48:45;41.77;;;21.23;;
17052;SDS011;8643;48.824;11.422;2022-11-15T07:51:32;43.30;;;22.83;;
17052;SDS011;8643;48.824;11.422;2022-11-15T07:54:19;43.03;;;23.20;;
17052;SDS011;8643;48.824;11.422;2022-11-15T07:57:06;49.70;;;27.80;;
17052;SDS011;8643;48.824;11.422;2022-11-15T07:59:55;45.53;;;25.37;;
17052;SDS011;8643;48.824;11.422;2022-11-15T08:02:42;48.43;;;26.63;;
17052;SDS011;8643;48.824;11.422;2022-11-15T08:05:31;49.77;;;29.30;;
17052;SDS011;8643;48.824;11.422;2022-11-15T08:08:19;53.90;;;28.77;;
17052;SDS011;8643;48.824;11.422;2022-11-15T08:11:06;45.00;;;26.37;;
17052;SDS011;8643;48.824;11.422;2022-11-15T08:13:53;43.73;;;25.63;;
17052;SDS011;8643;48.824;11.422;2022-11-15T08:16:40;37.10;;;23.00;;
17052;SDS011;8643;48.824;11.422;2022-11-15T08:19:27;39.30;;;22.97;;
17052;SDS011;8643;48.824;11.422;2022-11-15T08:22:15;25.07;;;16.97;;
17052;SDS011;8643;48.824;11.422;2022-11-15T08:25:02;28.13;;;16.13;;
17052;SDS011;8643;48.824;11.422;2022-11-15T08:27:50;21.58;;;14.55;;
17052;SDS011;8643;48.824;11.422;2022-11-15T08:30:39;21.88;;;15.07;;
17052;SDS011;8643;48.824;11.422;2022-11-15T08:33:30;19.52;;;12.82;;
17052;SDS011;8643;48.824;11.422;2022-11-15T08:36:19;11.30;;;8.20;;
17052;SDS011;8643;48.824;11.422;2022-11-15T08:39:09;10.32;;;7.93;;
17052;SDS011;8643;48.824;11.422;2022-11-15T08:41:57;12.38;;;7.90;;
17052;SDS011;8643;48.824;11.422;2022-11-15T08:44:44;11.23;;;7.63;;
17052;SDS011;8643;48.824;11.422;2022-11-15T08:47:31;10.65;;;7.65;;
17052;SDS011;8643;48.824;11.422;2022-11-15T08:50:19;10.95;;;7.75;;
17052;SDS011;8643;48.824;11.422;2022-11-15T08:53:06;8.40;;;6.90;;
17052;SDS011;8643;48.824;11.422;2022-11-15T08:55:55;9.13;;;7.07;;
17052;SDS011;8643;48.824;11.422;2022-11-15T08:58:42;12.70;;;7.28;;
17052;SDS011;8643;48.824;11.422;2022-11-15T09:01:29;9.43;;;6.93;;
17052;SDS011;8643;48.824;11.422;2022-11-15T09:04:17;11.18;;;7.50;;
17052;SDS011;8643;48.824;11.422;2022-11-15T09:07:04;12.05;;;7.50;;
17052;SDS011;8643;48.824;11.422;2022-11-15T09:09:51;9.65;;;7.18;;
17052;SDS011;8643;48.824;11.422;2022-11-15T09:12:39;9.60;;;7.15;;
17052;SDS011;8643;48.824;11.422;2022-11-15T09:15:26;10.82;;;7.80;;
17052;SDS011;8643;48.824;11.422;2022-11-15T09:18:13;12.07;;;7.60;;
17052;SDS011;8643;48.824;11.422;2022-11-15T09:21:00;11.27;;;7.70;;
17052;SDS011;8643;48.824;11.422;2022-11-15T09:23:49;10.43;;;7.87;;
17052;SDS011;8643;48.824;11.422;2022-11-15T09:26:37;13.30;;;7.93;;
17052;SDS011;8643;48.824;11.422;2022-11-15T09:29:25;10.47;;;7.60;;
17052;SDS011;8643;48.824;11.422;2022-11-15T09:32:12;10.80;;;6.70;;
17052;SDS011;8643;48.824;11.422;2022-11-15T09:34:59;13.67;;;8.47;;
17052;SDS011;8643;48.824;11.422;2022-11-15T09:37:46;12.77;;;8.70;;
17052;SDS011;8643;48.824;11.422;2022-11-15T09:40:40;11.53;;;8.70;;
17052;SDS011;8643;48.824;11.422;2022-11-15T09:43:28;11.93;;;8.30;;
17052;SDS011;8643;48.824;11.422;2022-11-15T09:46:32;11.40;;;7.43;;
17052;SDS011;8643;48.824;11.422;2022-11-15T09:49:22;12.13;;;7.80;;
17052;SDS011;8643;48.824;11.422;2022-11-15T09:52:06;10.10;;;7.27;;
17052;SDS011;8643;48.824;11.422;2022-11-15T09:54:38;12.27;;;7.20;;
17052;SDS011;8643;48.824;11.422;2022-11-15T09:57:23;14.80;;;8.03;;
17052;SDS011;8643;48.824;11.422;2022-11-15T10:00:02;13.23;;;8.47;;
17052;SDS011;8643;48.824;11.422;2022-11-15T10:03:08;12.13;;;8.37;;
17052;SDS011;8643;48.824;11.422;2022-11-15T10:05:42;13.73;;;8.70;;
17052;SDS011;8643;48.824;11.422;2022-11-15T10:08:18;12.63;;;8.20;;
17052;SDS011;8643;48.824;11.422;2022-11-15T10:11:15;14.47;;;8.47;;
17052;SDS011;8643;48.824;11.422;2022-11-15T10:14:04;12.40;;;7.77;;
17052;SDS011;8643;48.824;11.422;2022-11-15T10:16:52;12.57;;;8.77;;
17052;SDS011;8643;48.824;11.422;2022-11-15T10:20:09;12.50;;;8.53;;
17052;SDS011;8643;48.824;11.422;2022-11-15T10:22:47;14.03;;;7.57;;
17052;SDS011;8643;48.824;11.422;2022-11-15T10:25:19;12.77;;;7.90;;
17052;SDS011;8643;48.824;11.422;2022-11-15T10:27:55;12.50;;;8.00;;
17052;SDS011;8643;48.824;11.422;2022-11-15T10:30:30;9.50;;;7.33;;
17052;SDS011;8643;48.824;11.422;2022-11-15T10:33:09;11.40;;;8.03;;
17052;SDS011;8643;48.824;11.422;2022-11-15T10:35:41;8.93;;;6.30;;
17052;SDS011;8643;48.824;11.422;2022-11-15T10:38:10;9.93;;;6.90;;
17052;SDS011;8643;48.824;11.422;2022-11-15T10:40:40;8.80;;;5.97;;
17052;SDS011;8643;48.824;11.422;2022-11-15T10:43:14;6.37;;;4.80;;
17052;SDS011;8643;48.824;11.422;2022-11-15T10:45:44;8.73;;;5.80;;
17052;SDS011;8643;48.824;11.422;2022-11-15T10:48:19;9.07;;;5.57;;
17052;SDS011;8643;48.824;11.422;2022-11-15T10:50:54;9.57;;;5.73;;
17052;SDS011;8643;48.824;11.422;2022-11-15T10:53:25;8.97;;;6.37;;
17052;SDS011;8643;48.824;11.422;2022-11-15T10:56:01;9.63;;;6.50;;
17052;SDS011;8643;48.824;11.422;2022-11-15T10:58:35;10.53;;;6.80;;
17052;SDS011;8643;48.824;11.422;2022-11-15T11:01:11;13.23;;;7.83;;
17052;SDS011;8643;48.824;11.422;2022-11-15T11:03:58;11.00;;;7.20;;
17052;SDS011;8643;48.824;11.422;2022-11-15T11:06:29;11.60;;;7.30;;
17052;SDS011;8643;48.824;11.422;2022-11-15T11:09:20;9.90;;;6.77;;
17052;SDS011;8643;48.824;11.422;2022-11-15T11:11:56;9.90;;;6.23;;
17052;SDS011;8643;48.824;11.422;2022-11-15T11:14:25;10.00;;;6.07;;
17052;SDS011;8643;48.824;11.422;2022-11-15T11:17:00;9.67;;;5.43;;
17052;SDS011;8643;48.824;11.422;2022-11-15T11:19:49;7.17;;;5.60;;
17052;SDS011;8643;48.824;11.422;2022-11-15T11:22:32;6.93;;;4.70;;
17052;SDS011;8643;48.824;11.422;2022-11-15T11:25:16;7.90;;;5.50;;
17052;SDS011;8643;48.824;11.422;2022-11-15T11:27:57;7.43;;;5.33;;
17052;SDS011;8643;48.824;11.422;2022-11-15T11:30:41;7.80;;;5.17;;
17052;SDS011;8643;48.824;11.422;2022-11-15T11:33:17;8.43;;;5.50;;
17052;SDS011;8643;48.824;11.422;2022-11-15T11:35:50;8.97;;;5.37;;
17052;SDS011;8643;48.824;11.422;2022-11-15T11:38:39;8.90;;;6.03;;
17052;SDS011;8643;48.824;11.422;2022-11-15T11:41:37;8.60;;;5.83;;
17052;SDS011;8643;48.824;11.422;2022-11-15T11:44:28;8.10;;;5.60;;
17052;SDS011;8643;48.824;11.422;2022-11-15T11:47:07;9.73;;;6.20;;
17052;SDS011;8643;48.824;11.422;2022-11-15T11:49:41;8.47;;;6.40;;
17052;SDS011;8643;48.824;11.422;2022-11-15T11:52:16;11.57;;;6.97;;
17052;SDS011;8643;48.824;11.422;2022-11-15T11:54:57;9.33;;;6.50;;
17052;SDS011;8643;48.824;11.422;2022-11-15T11:57:40;9.47;;;6.60;;
17052;SDS011;8643;48.824;11.422;2022-11-15T12:00:16;12.03;;;6.63;;
17052;SDS011;8643;48.824;11.422;2022-11-15T12:02:55;8.80;;;6.60;;
17052;SDS011;8643;48.824;11.422;2022-11-15T12:05:36;9.63;;;6.60;;
17052;SDS011;8643;48.824;11.422;2022-11-15T12:08:15;11.17;;;6.40;;
17052;SDS011;8643;48.824;11.422;2022-11-15T12:11:00;7.95;;;5.97;;
17052;SDS011;8643;48.824;11.422;2022-11-15T12:13:39;10.15;;;6.10;;
17052;SDS011;8643;48.824;11.422;2022-11-15T12:16:11;7.63;;;5.75;;
17052;SDS011;8643;48.824;11.422;2022-11-15T12:18:46;7.68;;;6.00;;
17052;SDS011;8643;48.824;11.422;2022-11-15T12:21:19;9.88;;;6.20;;
17052;SDS011;8643;48.824;11.422;2022-11-15T12:23:55;7.70;;;6.07;;
17052;SDS011;8643;48.824;11.422;2022-11-15T12:26:33;9.57;;;6.53;;
17052;SDS011;8643;48.824;11.422;2022-11-15T12:29:09;7.32;;;5.97;;
17052;SDS011;8643;48.824;11.422;2022-11-15T12:31:48;7.25;;;6.05;;
17052;SDS011;8643;48.824;11.422;2022-11-15T12:34:33;7.85;;;5.72;;
17052;SDS011;8643;48.824;11.422;2022-11-15T12:40:31;8.20;;;6.57;;
17052;SDS011;8643;48.824;11.422;2022-11-15T12:46:18;8.75;;;6.50;;
17052;SDS011;8643;48.824;11.422;2022-11-15T12:48:54;7.50;;;5.97;;
17052;SDS011;8643;48.824;11.422;2022-11-15T12:58:03;8.27;;;6.28;;
17052;SDS011;8643;48.824;11.422;2022-11-15T13:00:58;9.98;;;6.20;;
17052;SDS011;8643;48.824;11.422;2022-11-15T13:03:29;7.85;;;6.47;;
17052;SDS011;8643;48.824;11.422;2022-11-15T13:06:00;8.32;;;6.15;;
17052;SDS011;8643;48.824;11.422;2022-11-15T13:08:57;7.35;;;6.00;;
17052;SDS011;8643;48.824;11.422;2022-11-15T13:11:42;8.80;;;6.50;;
17052;SDS011;8643;48.824;11.422;2022-11-15T13:17:20;8.70;;;6.25;;
17052;SDS011;8643;48.824;11.422;2022-11-15T13:20:02;6.78;;;5.80;;
17052;SDS011;8643;48.824;11.422;2022-11-15T13:22:49;9.38;;;5.50;;
17052;SDS011;8643;48.824;11.422;2022-11-15T13:25:24;6.40;;;4.72;;
17052;SDS011;8643;48.824;11.422;2022-11-15T13:28:21;6.05;;;5.20;;
17052;SDS011;8643;48.824;11.422;2022-11-15T13:30:58;7.78;;;6.18;;
17052;SDS011;8643;48.824;11.422;2022-11-15T13:33:31;7.72;;;6.00;;
17052;SDS011;8643;48.824;11.422;2022-11-15T13:36:03;10.52;;;6.32;;
17052;SDS011;8643;48.824;11.422;2022-11-15T13:38:40;7.68;;;5.72;;
17052;SDS011;8643;48.824;11.422;2022-11-15T13:41:16;6.60;;;5.70;;
17052;SDS011;8643;48.824;11.422;2022-11-15T13:43:47;7.78;;;5.80;;
17052;SDS011;8643;48.824;11.422;2022-11-15T13:46:18;7.72;;;5.90;;
17052;SDS011;8643;48.824;11.422;2022-11-15T13:48:52;8.07;;;6.10;;
17052;SDS011;8643;48.824;11.422;2022-11-15T13:51:29;8.15;;;5.88;;
17052;SDS011;8643;48.824;11.422;2022-11-15T13:54:07;7.68;;;6.20;;
17052;SDS011;8643;48.824;11.422;2022-11-15T13:56:47;6.55;;;5.30;;
17052;SDS011;8643;48.824;11.422;2022-11-15T13:59:21;7.03;;;5.55;;
17052;SDS011;8643;48.824;11.422;2022-11-15T14:01:52;6.93;;;5.40;;
17052;SDS011;8643;48.824;11.422;2022-11-15T14:04:25;7.10;;;5.07;;
17052;SDS011;8643;48.824;11.422;2022-11-15T14:06:57;7.47;;;5.40;;
17052;SDS011;8643;48.824;11.422;2022-11-15T14:09:37;6.78;;;5.68;;
17052;SDS011;8643;48.824;11.422;2022-11-15T14:12:24;7.82;;;6.18;;
17052;SDS011;8643;48.824;11.422;2022-11-15T14:14:57;7.97;;;6.35;;
17052;SDS011;8643;48.824;11.422;2022-11-15T14:17:36;9.35;;;5.90;;
17052;SDS011;8643;48.824;11.422;2022-11-15T14:20:24;7.53;;;6.20;;
17052;SDS011;8643;48.824;11.422;2022-11-15T14:22:57;6.85;;;5.57;;
17052;SDS011;8643;48.824;11.422;2022-11-15T14:25:28;8.23;;;6.00;;
17052;SDS011;8643;48.824;11.422;2022-11-15T14:28:11;7.72;;;5.60;;
17052;SDS011;8643;48.824;11.422;2022-11-15T14:30:42;10.10;;;6.20;;
17052;SDS011;8643;48.824;11.422;2022-11-15T14:33:21;7.18;;;5.22;;
17052;SDS011;8643;48.824;11.422;2022-11-15T14:35:58;7.03;;;5.28;;
17052;SDS011;8643;48.824;11.422;2022-11-15T14:38:30;7.22;;;5.53;;
17052;SDS011;8643;48.824;11.422;2022-11-15T14:40:59;10.27;;;5.75;;
17052;SDS011;8643;48.824;11.422;2022-11-15T14:43:27;7.25;;;5.40;;
17052;SDS011;8643;48.824;11.422;2022-11-15T14:45:56;7.63;;;5.68;;
17052;SDS011;8643;48.824;11.422;2022-11-15T14:48:25;6.60;;;5.38;;
17052;SDS011;8643;48.824;11.422;2022-11-15T14:50:54;8.77;;;6.18;;
17052;SDS011;8643;48.824;11.422;2022-11-15T14:53:24;7.18;;;5.55;;
17052;SDS011;8643;48.824;11.422;2022-11-15T14:55:52;7.97;;;5.90;;
17052;SDS011;8643;48.824;11.422;2022-11-15T14:58:20;7.72;;;5.60;;
17052;SDS011;8643;48.824;11.422;2022-11-15T15:00:49;7.30;;;5.63;;
17052;SDS011;8643;48.824;11.422;2022-11-15T15:03:17;8.38;;;5.75;;
17052;SDS011;8643;48.824;11.422;2022-11-15T15:05:46;10.27;;;6.35;;
17052;SDS011;8643;48.824;11.422;2022-11-15T15:08:15;7.30;;;5.60;;
17052;SDS011;8643;48.824;11.422;2022-11-15T15:10:45;8.77;;;6.35;;
17052;SDS011;8643;48.824;11.422;2022-11-15T15:13:15;9.65;;;6.57;;
17052;SDS011;8643;48.824;11.422;2022-11-15T15:15:46;9.02;;;6.40;;
17052;SDS011;8643;48.824;11.422;2022-11-15T15:18:15;8.93;;;6.13;;
17052;SDS011;8643;48.824;11.422;2022-11-15T15:20:47;9.73;;;6.47;;
17052;SDS011;8643;48.824;11.422;2022-11-15T15:23:21;8.63;;;6.18;;
17052;SDS011;8643;48.824;11.422;2022-11-15T15:25:53;11.20;;;6.55;;
17052;SDS011;8643;48.824;11.422;2022-11-15T15:28:22;12.13;;;5.90;;
17052;SDS011;8643;48.824;11.422;2022-11-15T15:30:56;8.87;;;6.27;;
17052;SDS011;8643;48.824;11.422;2022-11-15T15:33:25;7.67;;;5.57;;
17052;SDS011;8643;48.824;11.422;2022-11-15T15:35:53;10.63;;;7.37;;
17052;SDS011;8643;48.824;11.422;2022-11-15T15:38:22;9.73;;;6.33;;
17052;SDS011;8643;48.824;11.422;2022-11-15T15:40:52;13.47;;;6.63;;
17052;SDS011;8643;48.824;11.422;2022-11-15T15:43:20;9.73;;;6.33;;
17052;SDS011;8643;48.824;11.422;2022-11-15T15:45:49;9.67;;;6.17;;
17052;SDS011;8643;48.824;11.422;2022-11-15T15:48:18;9.77;;;6.00;;
17052;SDS011;8643;48.824;11.422;2022-11-15T15:50:46;9.93;;;5.97;;
17052;SDS011;8643;48.824;11.422;2022-11-15T15:53:15;9.80;;;5.97;;
17052;SDS011;8643;48.824;11.422;2022-11-15T15:55:44;10.67;;;5.90;;
17052;SDS011;8643;48.824;11.422;2022-11-15T15:58:14;10.83;;;6.47;;
17052;SDS011;8643;48.824;11.422;2022-11-15T16:00:43;10.00;;;6.00;;
17052;SDS011;8643;48.824;11.422;2022-11-15T16:03:11;12.50;;;6.37;;
17052;SDS011;8643;48.824;11.422;2022-11-15T16:05:39;13.87;;;8.27;;
17052;SDS011;8643;48.824;11.422;2022-11-15T16:08:09;13.80;;;7.07;;
17052;SDS011;8643;48.824;11.422;2022-11-15T16:10:46;9.63;;;5.90;;
17052;SDS011;8643;48.824;11.422;2022-11-15T16:13:16;12.60;;;6.27;;
17052;SDS011;8643;48.824;11.422;2022-11-15T16:15:44;9.60;;;6.30;;
17052;SDS011;8643;48.824;11.422;2022-11-15T16:18:17;10.00;;;6.53;;
17052;SDS011;8643;48.824;11.422;2022-11-15T16:20:47;10.63;;;6.60;;
17052;SDS011;8643;48.824;11.422;2022-11-15T16:23:18;14.90;;;9.73;;
17052;SDS011;8643;48.824;11.422;2022-11-15T16:25:50;14.53;;;7.47;;
17052;SDS011;8643;48.824;11.422;2022-11-15T16:28:24;12.70;;;8.03;;
17052;SDS011;8643;48.824;11.422;2022-11-15T16:31:03;10.40;;;6.50;;
17052;SDS011;8643;48.824;11.422;2022-11-15T16:33:33;12.60;;;7.90;;
17052;SDS011;8643;48.824;11.422;2022-11-15T16:36:03;10.60;;;6.63;;